Global Endeavor — 3EOJ9 — position and weather

sailwx.info

Track history (hours):
 
Tides and Currents Weather Stations Pressure Air Temp Water Temp Dewpoint Dewpoint Depression Visibility Wind Speed Wind Dir Waves Ship Positions

Global Endeavor

Last reported at 2015-Jul-02 00:30 UTC. Time now 2015-Jul-03 10:39 UTC.
Position N 48°30' W 127°16'.

Length 175 m; draft 9.7 m.

Type: Cargo ship. MMSI: 356619000.

Date/timePositionNaut miles runAvg speedWind from/ knotsBaromVisibWave heightAir tempDewpointWater temp
2015-Jul-02 00:30N 48°30' W 127°16'13 9.6
2015-Jul-01 23:06N 48°31' W 126°55'710.1
2015-Jul-01 22:24N 48°31' W 126°45'910.1
2015-Jul-01 21:31N 48°31' W 126°31'1010.3
2015-Jul-01 20:34N 48°30' W 126°16'1110.5
2015-Jul-01 19:33N 48°31' W 126°00'1110.8
2015-Jul-01 18:33N 48°31' W 125°44'1111.0
2015-Jul-01 17:33N 48°30' W 125°27'1111.4
2015-Jul-01 16:34N 48°31' W 125°10'1211.8
2015-Jul-01 15:33N 48°31' W 124°53'1212.3
2015-Jul-01 14:33N 48°28' W 124°35'1312.9
2015-Jul-01 13:33N 48°23' W 124°17'1312.8
2015-Jul-01 12:33N 48°18' W 123°59'1312.4
2015-Jul-01 11:32N 48°16' W 123°40'1010.5
2015-Jul-01 10:33N 48°12' W 123°26'9 8.8
2015-Jul-01 09:33N 48°11' W 123°13'1312.8
2015-Jul-01 08:33N 48°12' W 122°54'1211.7
2015-Jul-01 07:33N 48°05' W 122°39'1312.9
2015-Jul-01 06:33N 47°55' W 122°29'1413.8
2015-Jul-01 05:33N 47°41' W 122°27'10 9.8
2015-Jul-01 04:33N 47°31' W 122°29'1313.1
2015-Jul-01 03:34N 47°18' W 122°33'13 9.2
2015-Jul-01 02:11N 47°11' W 122°48'9 1.8
2015-Jun-30 21:16N 47°03' W 122°54'  
2015-Jun-28 04:22N 47°03' W 122°54'0 0.0
2015-Jun-27 01:03N 47°03' W 122°54'0 0.0
2015-Jun-27 00:33N 47°03' W 122°54'0 0.0
2015-Jun-26 23:03N 47°03' W 122°54'0 0.0
2015-Jun-26 22:33N 47°03' W 122°54'0 0.0
2015-Jun-26 08:11N 47°03' W 122°54'1 1.0
2015-Jun-26 07:33N 47°04' W 122°54'5 5.2
2015-Jun-26 06:32N 47°09' W 122°55'9 9.6
2015-Jun-26 05:33N 47°08' W 122°41'1413.7
2015-Jun-26 04:33N 47°20' W 122°33'1413.7
2015-Jun-26 03:34N 47°33' W 122°27'6 5.8
2015-Jun-26 02:33N 47°39' W 122°28'1413.6
2015-Jun-26 01:33N 47°53' W 122°29'1312.9
2015-Jun-26 00:31N 48°04' W 122°40'1212.0
2015-Jun-25 23:32N 48°11' W 122°54'1313.3
2015-Jun-25 22:32N 48°12' W 123°14'1111.0
2015-Jun-25 21:34N 48°12' W 123°30'9 9.0
2015-Jun-25 20:33N 48°13' W 123°43'1010.3
2015-Jun-25 19:33N 48°15' W 123°59'9 9.4
2015-Jun-25 18:34N 48°18' W 124°11'1111.0
2015-Jun-25 17:34N 48°23' W 124°26'1111.0
2015-Jun-25 16:33N 48°28' W 124°42'9 8.7
2015-Jun-25 15:34N 48°29' W 124°55'10 9.8
2015-Jun-25 14:34N 48°28' W 125°09'9 9.2
2015-Jun-25 13:33N 48°22' W 125°20'1312.9
2015-Jun-25 12:34N 48°14' W 125°35'1313.0
2015-Jun-25 11:33N 48°06' W 125°50'7512.5
2015-Jun-25 05:33N 46°51' W 125°45'1312.7
2015-Jun-25 04:32N 46°38' W 125°42'1212.5
2015-Jun-25 03:33N 46°26' W 125°40'1312.6
2015-Jun-25 02:33N 46°13' W 125°38'1312.5
2015-Jun-25 01:33N 46°01' W 125°37'1312.8
2015-Jun-25 00:33N 45°49' W 125°32'1312.5
2015-Jun-24 23:33N 45°36' W 125°29'1312.8
2015-Jun-24 22:33N 45°24' W 125°26'1313.1
2015-Jun-24 21:33N 45°11' W 125°24'1312.9
2015-Jun-24 20:33N 44°58' W 125°21'1212.5
2015-Jun-24 19:33N 44°45' W 125°19'1312.8
2015-Jun-24 18:32N 44°33' W 125°16'1412.6
2015-Jun-24 17:24N 44°18' W 125°13'1212.5
2015-Jun-24 16:24N 44°06' W 125°10'1112.4
2015-Jun-24 15:32N 43°55' W 125°08'3012.7
2015-Jun-24 13:10N 43°26' W 125°01'912.2
2015-Jun-24 12:27N 43°17' W 124°59'  
Track history (hours):
 
Tides and Currents Weather Stations Pressure Air Temp Water Temp Dewpoint Dewpoint Depression Visibility Wind Speed Wind Dir Waves Ship Positions

Global Endeavor

Last reported at 2015-Jul-02 00:30 UTC. Time now 2015-Jul-03 10:39 UTC.
Position N 48°30' W 127°16'.

Length 175 m; draft 9.7 m.

Type: Cargo ship. MMSI: 356619000.

Date/timePositionNaut miles runAvg speedWind from/ knotsBaromVisibWave heightAir tempDewpointWater temp
2015-Jul-02 00:30N 48°30' W 127°16'13 9.6
2015-Jul-01 23:06N 48°31' W 126°55'710.1
2015-Jul-01 22:24N 48°31' W 126°45'910.1
2015-Jul-01 21:31N 48°31' W 126°31'1010.3
2015-Jul-01 20:34N 48°30' W 126°16'1110.5
2015-Jul-01 19:33N 48°31' W 126°00'1110.8
2015-Jul-01 18:33N 48°31' W 125°44'1111.0
2015-Jul-01 17:33N 48°30' W 125°27'1111.4
2015-Jul-01 16:34N 48°31' W 125°10'1211.8
2015-Jul-01 15:33N 48°31' W 124°53'1212.3
2015-Jul-01 14:33N 48°28' W 124°35'1312.9
2015-Jul-01 13:33N 48°23' W 124°17'1312.8
2015-Jul-01 12:33N 48°18' W 123°59'1312.4
2015-Jul-01 11:32N 48°16' W 123°40'1010.5
2015-Jul-01 10:33N 48°12' W 123°26'9 8.8
2015-Jul-01 09:33N 48°11' W 123°13'1312.8
2015-Jul-01 08:33N 48°12' W 122°54'1211.7
2015-Jul-01 07:33N 48°05' W 122°39'1312.9
2015-Jul-01 06:33N 47°55' W 122°29'1413.8
2015-Jul-01 05:33N 47°41' W 122°27'10 9.8
2015-Jul-01 04:33N 47°31' W 122°29'1313.1
2015-Jul-01 03:34N 47°18' W 122°33'13 9.2
2015-Jul-01 02:11N 47°11' W 122°48'9 1.8
2015-Jun-30 21:16N 47°03' W 122°54'  
2015-Jun-28 04:22N 47°03' W 122°54'0 0.0
2015-Jun-27 01:03N 47°03' W 122°54'0 0.0
2015-Jun-27 00:33N 47°03' W 122°54'0 0.0
2015-Jun-26 23:03N 47°03' W 122°54'0 0.0
2015-Jun-26 22:33N 47°03' W 122°54'0 0.0
2015-Jun-26 08:11N 47°03' W 122°54'1 1.0
2015-Jun-26 07:33N 47°04' W 122°54'5 5.2
2015-Jun-26 06:32N 47°09' W 122°55'9 9.6
2015-Jun-26 05:33N 47°08' W 122°41'1413.7
2015-Jun-26 04:33N 47°20' W 122°33'1413.7
2015-Jun-26 03:34N 47°33' W 122°27'6 5.8
2015-Jun-26 02:33N 47°39' W 122°28'1413.6
2015-Jun-26 01:33N 47°53' W 122°29'1312.9
2015-Jun-26 00:31N 48°04' W 122°40'1212.0
2015-Jun-25 23:32N 48°11' W 122°54'1313.3
2015-Jun-25 22:32N 48°12' W 123°14'1111.0
2015-Jun-25 21:34N 48°12' W 123°30'9 9.0
2015-Jun-25 20:33N 48°13' W 123°43'1010.3
2015-Jun-25 19:33N 48°15' W 123°59'9 9.4
2015-Jun-25 18:34N 48°18' W 124°11'1111.0
2015-Jun-25 17:34N 48°23' W 124°26'1111.0
2015-Jun-25 16:33N 48°28' W 124°42'9 8.7
2015-Jun-25 15:34N 48°29' W 124°55'10 9.8
2015-Jun-25 14:34N 48°28' W 125°09'9 9.2
2015-Jun-25 13:33N 48°22' W 125°20'1312.9
2015-Jun-25 12:34N 48°14' W 125°35'1313.0
2015-Jun-25 11:33N 48°06' W 125°50'7512.5
2015-Jun-25 05:33N 46°51' W 125°45'1312.7
2015-Jun-25 04:32N 46°38' W 125°42'1212.5
2015-Jun-25 03:33N 46°26' W 125°40'1312.6
2015-Jun-25 02:33N 46°13' W 125°38'1312.5
2015-Jun-25 01:33N 46°01' W 125°37'1312.8
2015-Jun-25 00:33N 45°49' W 125°32'1312.5
2015-Jun-24 23:33N 45°36' W 125°29'1312.8
2015-Jun-24 22:33N 45°24' W 125°26'1313.1
2015-Jun-24 21:33N 45°11' W 125°24'1312.9
2015-Jun-24 20:33N 44°58' W 125°21'1212.5
2015-Jun-24 19:33N 44°45' W 125°19'1312.8
2015-Jun-24 18:32N 44°33' W 125°16'1412.6
2015-Jun-24 17:24N 44°18' W 125°13'1212.5
2015-Jun-24 16:24N 44°06' W 125°10'1112.4
2015-Jun-24 15:32N 43°55' W 125°08'3012.7
2015-Jun-24 13:10N 43°26' W 125°01'912.2
2015-Jun-24 12:27N 43°17' W 124°59'  

Dump ship's entire track history